DLH9XV EPWA-EDDM
Flight info
| Callsign | DLH9XV |
|---|---|
| Flight time | 1h 13m |
| Altitude | 34000 |
| Route | SOXER N869 UVIVI DCT ELVOT DCT IPRUX DCT NIRGO T108 LANDU LANDU2A |
| Aircraft | A319/M-SDE3FGHIRWY/LB1 |
Departure
| Time | 2026-05-07 22:10 |
|---|---|
| Airport | Warsaw Chopin Airport (EPWA) |
Arrival
| Time | 2026-05-07 23:23 |
|---|---|
| Airport | Munich Airport (EDDM) |
| Time | Latitude | Longitude | Altitude | Speed | Heading |
|---|---|---|---|---|---|
| 2026-05-07 21:47 | 52.17049 | 20.97109 | 339 ft | 0 kts | 68° |
| 2026-05-07 21:59 | 52.17045 | 20.97093 | 335 ft | 4 kts | 70° |
| 2026-05-07 21:59 | 52.17036 | 20.97051 | 336 ft | 4 kts | 69° |
| 2026-05-07 21:59 | 52.17028 | 20.97010 | 333 ft | 4 kts | 79° |
| 2026-05-07 21:59 | 52.17027 | 20.96968 | 334 ft | 4 kts | 112° |
| 2026-05-07 22:00 | 52.17038 | 20.96945 | 335 ft | 1 kts | 152° |
| 2026-05-07 22:00 | 52.17041 | 20.96942 | 336 ft | 1 kts | 152° |
| 2026-05-07 22:05 | 52.17039 | 20.96944 | 336 ft | 2 kts | 152° |
| 2026-05-07 22:05 | 52.16998 | 20.96979 | 337 ft | 12 kts | 152° |
| 2026-05-07 22:05 | 52.16908 | 20.97058 | 336 ft | 16 kts | 152° |
| 2026-05-07 22:06 | 52.16812 | 20.97139 | 337 ft | 15 kts | 152° |
| 2026-05-07 22:06 | 52.16718 | 20.97224 | 338 ft | 16 kts | 151° |
| 2026-05-07 22:06 | 52.16649 | 20.97284 | 337 ft | 17 kts | 152° |
| 2026-05-07 22:06 | 52.16569 | 20.97389 | 336 ft | 15 kts | 115° |
| 2026-05-07 22:07 | 52.16524 | 20.97549 | 337 ft | 16 kts | 114° |
| 2026-05-07 22:07 | 52.16475 | 20.97724 | 339 ft | 18 kts | 114° |
| 2026-05-07 22:07 | 52.16421 | 20.97911 | 338 ft | 19 kts | 116° |
| 2026-05-07 22:07 | 52.16367 | 20.98107 | 338 ft | 17 kts | 115° |
| 2026-05-07 22:08 | 52.16316 | 20.98286 | 337 ft | 17 kts | 115° |
| 2026-05-07 22:08 | 52.16268 | 20.98348 | 339 ft | 9 kts | 192° |
| 2026-05-07 22:08 | 52.16206 | 20.98299 | 338 ft | 11 kts | 204° |
| 2026-05-07 22:08 | 52.16149 | 20.98246 | 338 ft | 7 kts | 239° |
| 2026-05-07 22:09 | 52.16163 | 20.98180 | 336 ft | 7 kts | 295° |
| 2026-05-07 22:09 | 52.16240 | 20.97906 | 337 ft | 65 kts | 295° |
| 2026-05-07 22:09 | 52.16534 | 20.96858 | 334 ft | 136 kts | 295° |
| 2026-05-07 22:09 | 52.16976 | 20.95337 | 784 ft | 149 kts | 298° |
| 2026-05-07 22:10 | 52.17436 | 20.93809 | 1471 ft | 151 kts | 297° |
| 2026-05-07 22:10 | 52.17895 | 20.92168 | 1952 ft | 169 kts | 297° |
| 2026-05-07 22:10 | 52.18317 | 20.90265 | 2386 ft | 192 kts | 279° |
| 2026-05-07 22:10 | 52.18339 | 20.87959 | 2770 ft | 216 kts | 268° |
| 2026-05-07 22:11 | 52.18207 | 20.85398 | 3232 ft | 238 kts | 265° |
| 2026-05-07 22:11 | 52.18183 | 20.82587 | 3877 ft | 256 kts | 278° |
| 2026-05-07 22:11 | 52.18504 | 20.79706 | 4899 ft | 260 kts | 281° |
| 2026-05-07 22:11 | 52.18876 | 20.76801 | 5942 ft | 263 kts | 282° |
| 2026-05-07 22:12 | 52.19275 | 20.73881 | 6961 ft | 265 kts | 282° |
| 2026-05-07 22:12 | 52.19535 | 20.70890 | 7886 ft | 270 kts | 269° |
| 2026-05-07 22:12 | 52.19228 | 20.67867 | 8812 ft | 273 kts | 251° |
| 2026-05-07 22:12 | 52.18577 | 20.64937 | 9776 ft | 277 kts | 249° |
| 2026-05-07 22:13 | 52.17909 | 20.61940 | 10452 ft | 291 kts | 249° |
| 2026-05-07 22:13 | 52.17192 | 20.58724 | 10859 ft | 311 kts | 249° |
| 2026-05-07 22:13 | 52.16442 | 20.55361 | 11590 ft | 319 kts | 249° |
| 2026-05-07 22:13 | 52.15682 | 20.51937 | 12408 ft | 324 kts | 249° |
| 2026-05-07 22:14 | 52.14924 | 20.48466 | 13237 ft | 328 kts | 250° |
| 2026-05-07 22:14 | 52.14216 | 20.44911 | 14026 ft | 332 kts | 252° |
| 2026-05-07 22:14 | 52.13537 | 20.41297 | 14779 ft | 335 kts | 252° |
| 2026-05-07 22:14 | 52.12866 | 20.37658 | 15557 ft | 337 kts | 252° |
| 2026-05-07 22:15 | 52.12190 | 20.33999 | 16330 ft | 339 kts | 251° |
| 2026-05-07 22:15 | 52.11500 | 20.30321 | 17094 ft | 341 kts | 251° |
| 2026-05-07 22:15 | 52.10798 | 20.26630 | 17867 ft | 343 kts | 251° |
| 2026-05-07 22:15 | 52.10086 | 20.22920 | 18590 ft | 345 kts | 250° |
| 2026-05-07 22:16 | 52.09366 | 20.19180 | 19210 ft | 348 kts | 250° |
| 2026-05-07 22:16 | 52.08638 | 20.15403 | 19812 ft | 352 kts | 249° |
| 2026-05-07 22:16 | 52.07899 | 20.11585 | 20402 ft | 356 kts | 249° |
| 2026-05-07 22:16 | 52.07148 | 20.07720 | 20994 ft | 360 kts | 248° |
| 2026-05-07 22:17 | 52.06389 | 20.03818 | 21583 ft | 364 kts | 248° |
| 2026-05-07 22:17 | 52.05618 | 19.99874 | 22170 ft | 368 kts | 247° |
| 2026-05-07 22:17 | 52.04839 | 19.95892 | 22863 ft | 369 kts | 247° |
| 2026-05-07 22:17 | 52.04061 | 19.91916 | 23562 ft | 370 kts | 246° |
| 2026-05-07 22:18 | 52.03238 | 19.87946 | 24094 ft | 372 kts | 245° |
| 2026-05-07 22:18 | 52.01498 | 19.79996 | 25093 ft | 376 kts | 244° |
| 2026-05-07 22:18 | 52.00610 | 19.75989 | 25577 ft | 378 kts | 244° |
| 2026-05-07 22:19 | 51.99720 | 19.71962 | 26053 ft | 381 kts | 244° |
| 2026-05-07 22:19 | 51.98826 | 19.67905 | 26525 ft | 383 kts | 244° |
| 2026-05-07 22:19 | 51.97928 | 19.63820 | 26994 ft | 386 kts | 244° |
| 2026-05-07 22:19 | 51.97028 | 19.59713 | 27447 ft | 388 kts | 244° |
| 2026-05-07 22:20 | 51.96123 | 19.55579 | 27893 ft | 391 kts | 244° |
| 2026-05-07 22:20 | 51.95211 | 19.51416 | 28353 ft | 393 kts | 244° |
| 2026-05-07 22:20 | 51.94292 | 19.47231 | 28808 ft | 395 kts | 243° |
| 2026-05-07 22:20 | 51.93364 | 19.43015 | 29242 ft | 398 kts | 243° |
| 2026-05-07 22:21 | 51.92430 | 19.38780 | 29682 ft | 400 kts | 243° |
| 2026-05-07 22:21 | 51.91489 | 19.34528 | 30101 ft | 403 kts | 243° |
| 2026-05-07 22:21 | 51.90538 | 19.30241 | 30463 ft | 405 kts | 243° |
| 2026-05-07 22:21 | 51.89583 | 19.25948 | 30829 ft | 406 kts | 243° |
| 2026-05-07 22:22 | 51.88621 | 19.21641 | 31207 ft | 408 kts | 243° |
| 2026-05-07 22:22 | 51.87654 | 19.17319 | 31561 ft | 409 kts | 243° |
| 2026-05-07 22:22 | 51.86684 | 19.12986 | 31965 ft | 409 kts | 244° |
| 2026-05-07 22:22 | 51.85726 | 19.08669 | 32500 ft | 407 kts | 244° |
| 2026-05-07 22:23 | 51.84789 | 19.04367 | 33041 ft | 404 kts | 244° |
| 2026-05-07 22:23 | 51.83863 | 19.00095 | 33586 ft | 401 kts | 244° |
| 2026-05-07 22:23 | 51.82943 | 18.95853 | 34112 ft | 399 kts | 245° |
| 2026-05-07 22:23 | 51.82023 | 18.91637 | 34502 ft | 398 kts | 245° |
| 2026-05-07 22:24 | 51.81095 | 18.87420 | 34804 ft | 399 kts | 245° |
| 2026-05-07 22:24 | 51.80158 | 18.83184 | 35075 ft | 401 kts | 245° |
| 2026-05-07 22:24 | 51.79218 | 18.78928 | 35334 ft | 403 kts | 245° |
| 2026-05-07 22:24 | 51.78273 | 18.74659 | 35581 ft | 406 kts | 245° |
| 2026-05-07 22:25 | 51.77315 | 18.70345 | 35745 ft | 410 kts | 245° |
| 2026-05-07 22:25 | 51.76351 | 18.66005 | 35970 ft | 412 kts | 246° |
| 2026-05-07 22:25 | 51.75383 | 18.61649 | 36189 ft | 414 kts | 246° |
| 2026-05-07 22:25 | 51.74406 | 18.57267 | 36399 ft | 416 kts | 246° |
| 2026-05-07 22:26 | 51.73420 | 18.52873 | 36636 ft | 417 kts | 246° |
| 2026-05-07 22:26 | 51.72429 | 18.48474 | 36886 ft | 418 kts | 246° |
| 2026-05-07 22:26 | 51.71435 | 18.44063 | 37113 ft | 419 kts | 246° |
| 2026-05-07 22:26 | 51.70438 | 18.39638 | 37351 ft | 420 kts | 247° |
| 2026-05-07 22:27 | 51.69442 | 18.35209 | 37575 ft | 421 kts | 247° |
| 2026-05-07 22:27 | 51.68444 | 18.30771 | 37796 ft | 422 kts | 247° |
| 2026-05-07 22:27 | 51.67442 | 18.26322 | 38019 ft | 423 kts | 247° |
| 2026-05-07 22:28 | 51.65421 | 18.17417 | 38095 ft | 423 kts | 247° |
| 2026-05-07 22:28 | 51.63391 | 18.08531 | 38091 ft | 423 kts | 248° |
| 2026-05-07 22:29 | 51.61357 | 17.99657 | 38088 ft | 422 kts | 248° |
| 2026-05-07 22:29 | 51.59187 | 17.90906 | 38097 ft | 420 kts | 240° |
| 2026-05-07 22:30 | 51.55655 | 17.83514 | 38094 ft | 418 kts | 223° |
| 2026-05-07 22:30 | 51.51472 | 17.77026 | 38096 ft | 418 kts | 223° |
| 2026-05-07 22:31 | 51.47287 | 17.70548 | 38104 ft | 418 kts | 223° |
| 2026-05-07 22:31 | 51.43097 | 17.64072 | 38105 ft | 418 kts | 223° |
| 2026-05-07 22:32 | 51.38929 | 17.57647 | 38108 ft | 418 kts | 223° |
| 2026-05-07 22:32 | 51.34733 | 17.51190 | 38110 ft | 418 kts | 223° |
| 2026-05-07 22:33 | 51.30527 | 17.44756 | 38111 ft | 419 kts | 223° |
| 2026-05-07 22:33 | 51.26315 | 17.38333 | 38109 ft | 419 kts | 224° |
| 2026-05-07 22:34 | 51.22093 | 17.31907 | 38106 ft | 420 kts | 224° |
| 2026-05-07 22:34 | 51.17869 | 17.25481 | 38101 ft | 420 kts | 224° |
| 2026-05-07 22:35 | 51.13638 | 17.19055 | 38098 ft | 420 kts | 223° |
| 2026-05-07 22:35 | 51.09395 | 17.12643 | 38096 ft | 421 kts | 223° |
| 2026-05-07 22:36 | 51.05145 | 17.06247 | 38097 ft | 421 kts | 223° |
| 2026-05-07 22:36 | 51.00893 | 16.99853 | 38121 ft | 421 kts | 223° |
| 2026-05-07 22:37 | 50.96647 | 16.93479 | 38129 ft | 420 kts | 223° |
| 2026-05-07 22:37 | 50.92398 | 16.87126 | 38108 ft | 420 kts | 223° |
| 2026-05-07 22:38 | 50.88150 | 16.80786 | 38108 ft | 419 kts | 223° |
| 2026-05-07 22:38 | 50.83901 | 16.74456 | 38099 ft | 419 kts | 223° |
| 2026-05-07 22:39 | 50.79646 | 16.68152 | 38092 ft | 419 kts | 223° |
| 2026-05-07 22:39 | 50.75389 | 16.61860 | 38097 ft | 419 kts | 223° |
| 2026-05-07 22:40 | 50.71131 | 16.55577 | 38102 ft | 419 kts | 223° |
| 2026-05-07 22:40 | 50.66863 | 16.49290 | 38091 ft | 420 kts | 223° |
| 2026-05-07 22:41 | 50.62604 | 16.42963 | 38069 ft | 421 kts | 227° |
| 2026-05-07 22:41 | 50.59325 | 16.35343 | 38063 ft | 423 kts | 242° |
| 2026-05-07 22:42 | 50.56619 | 16.27105 | 38055 ft | 424 kts | 242° |
| 2026-05-07 22:42 | 50.53888 | 16.18871 | 38059 ft | 425 kts | 242° |
| 2026-05-07 22:43 | 50.51147 | 16.10640 | 38067 ft | 425 kts | 242° |
| 2026-05-07 22:43 | 50.48402 | 16.02404 | 38061 ft | 426 kts | 242° |
| 2026-05-07 22:44 | 50.45651 | 15.94175 | 38064 ft | 426 kts | 242° |
| 2026-05-07 22:44 | 50.42896 | 15.85962 | 38091 ft | 425 kts | 242° |
| 2026-05-07 22:45 | 50.40141 | 15.77779 | 38083 ft | 424 kts | 242° |
| 2026-05-07 22:45 | 50.37384 | 15.69625 | 38080 ft | 423 kts | 242° |
| 2026-05-07 22:46 | 50.34627 | 15.61489 | 38079 ft | 423 kts | 242° |
| 2026-05-07 22:46 | 50.31872 | 15.53363 | 38080 ft | 422 kts | 242° |
| 2026-05-07 22:47 | 50.29108 | 15.45250 | 38076 ft | 422 kts | 242° |
| 2026-05-07 22:47 | 50.26339 | 15.37165 | 38085 ft | 422 kts | 241° |
| 2026-05-07 22:48 | 50.24034 | 15.30456 | 38089 ft | 422 kts | 242° |
| 2026-05-07 22:48 | 50.21242 | 15.22335 | 38085 ft | 422 kts | 242° |
| 2026-05-07 22:49 | 50.18477 | 15.14320 | 38085 ft | 422 kts | 241° |
| 2026-05-07 22:49 | 50.15681 | 15.06257 | 38086 ft | 423 kts | 241° |
| 2026-05-07 22:50 | 50.12881 | 14.98204 | 38095 ft | 423 kts | 241° |
| 2026-05-07 22:50 | 50.10075 | 14.90156 | 38095 ft | 423 kts | 241° |
| 2026-05-07 22:51 | 50.07267 | 14.82115 | 38095 ft | 423 kts | 241° |
| 2026-05-07 22:51 | 50.04450 | 14.74084 | 38109 ft | 423 kts | 241° |
| 2026-05-07 22:52 | 50.01622 | 14.66061 | 38101 ft | 423 kts | 241° |
| 2026-05-07 22:52 | 49.98789 | 14.58035 | 38098 ft | 424 kts | 241° |
| 2026-05-07 22:53 | 49.95954 | 14.50013 | 38089 ft | 424 kts | 241° |
| 2026-05-07 22:53 | 49.93113 | 14.42003 | 38096 ft | 423 kts | 241° |
| 2026-05-07 22:54 | 49.90268 | 14.34009 | 38100 ft | 423 kts | 241° |
| 2026-05-07 22:54 | 49.87413 | 14.26021 | 38100 ft | 423 kts | 241° |
| 2026-05-07 22:55 | 49.84554 | 14.18055 | 38101 ft | 423 kts | 241° |
| 2026-05-07 22:55 | 49.81684 | 14.10092 | 38113 ft | 423 kts | 241° |
| 2026-05-07 22:56 | 49.78813 | 14.02140 | 38096 ft | 423 kts | 241° |
| 2026-05-07 22:56 | 49.75938 | 13.94200 | 37834 ft | 422 kts | 241° |
| 2026-05-07 22:56 | 49.74504 | 13.90240 | 37571 ft | 422 kts | 241° |
| 2026-05-07 22:57 | 49.73073 | 13.86288 | 37305 ft | 421 kts | 241° |
| 2026-05-07 22:57 | 49.71641 | 13.82340 | 37050 ft | 421 kts | 241° |
| 2026-05-07 22:57 | 49.70205 | 13.78397 | 36720 ft | 419 kts | 241° |
| 2026-05-07 22:57 | 49.68777 | 13.74496 | 36240 ft | 415 kts | 241° |
| 2026-05-07 22:58 | 49.67359 | 13.70629 | 35755 ft | 412 kts | 241° |
| 2026-05-07 22:58 | 49.65953 | 13.66787 | 35253 ft | 410 kts | 242° |
| 2026-05-07 22:58 | 49.64556 | 13.62971 | 34757 ft | 407 kts | 242° |
| 2026-05-07 22:58 | 49.63165 | 13.59174 | 34260 ft | 405 kts | 242° |
| 2026-05-07 22:59 | 49.61782 | 13.55404 | 33700 ft | 403 kts | 242° |
| 2026-05-07 22:59 | 49.60408 | 13.51676 | 33225 ft | 398 kts | 242° |
| 2026-05-07 22:59 | 49.59046 | 13.47987 | 32743 ft | 393 kts | 242° |
| 2026-05-07 22:59 | 49.57701 | 13.44345 | 32262 ft | 390 kts | 242° |
| 2026-05-07 23:00 | 49.56365 | 13.40732 | 31785 ft | 386 kts | 242° |
| 2026-05-07 23:00 | 49.55041 | 13.37162 | 31327 ft | 382 kts | 242° |
| 2026-05-07 23:00 | 49.53724 | 13.33621 | 30869 ft | 379 kts | 242° |
| 2026-05-07 23:00 | 49.52420 | 13.30108 | 30414 ft | 377 kts | 242° |
| 2026-05-07 23:01 | 49.51074 | 13.26666 | 29924 ft | 375 kts | 236° |
| 2026-05-07 23:01 | 49.49345 | 13.23663 | 29419 ft | 375 kts | 224° |
| 2026-05-07 23:01 | 49.47231 | 13.21313 | 28942 ft | 376 kts | 211° |
| 2026-05-07 23:01 | 49.44830 | 13.19706 | 28466 ft | 377 kts | 202° |
| 2026-05-07 23:02 | 49.42363 | 13.18364 | 27984 ft | 375 kts | 202° |
| 2026-05-07 23:02 | 49.39912 | 13.17017 | 27529 ft | 373 kts | 202° |
| 2026-05-07 23:02 | 49.37477 | 13.15673 | 27073 ft | 371 kts | 202° |
| 2026-05-07 23:02 | 49.35054 | 13.14331 | 26636 ft | 368 kts | 202° |
| 2026-05-07 23:03 | 49.32672 | 13.12933 | 26203 ft | 364 kts | 207° |
| 2026-05-07 23:03 | 49.30406 | 13.11248 | 25778 ft | 361 kts | 208° |
| 2026-05-07 23:03 | 49.28155 | 13.09565 | 25338 ft | 359 kts | 208° |
| 2026-05-07 23:03 | 49.25921 | 13.07902 | 24894 ft | 356 kts | 208° |
| 2026-05-07 23:04 | 49.23695 | 13.06249 | 24433 ft | 355 kts | 208° |
| 2026-05-07 23:04 | 49.21480 | 13.04601 | 23976 ft | 353 kts | 208° |
| 2026-05-07 23:04 | 49.19272 | 13.02964 | 23475 ft | 352 kts | 208° |
| 2026-05-07 23:04 | 49.17070 | 13.01355 | 22978 ft | 349 kts | 208° |
| 2026-05-07 23:05 | 49.14884 | 12.99772 | 22511 ft | 346 kts | 208° |
| 2026-05-07 23:05 | 49.12713 | 12.98207 | 22054 ft | 344 kts | 208° |
| 2026-05-07 23:05 | 49.10558 | 12.96654 | 21608 ft | 341 kts | 208° |
| 2026-05-07 23:05 | 49.08421 | 12.95105 | 21163 ft | 339 kts | 208° |
| 2026-05-07 23:06 | 49.06299 | 12.93564 | 20717 ft | 337 kts | 208° |
| 2026-05-07 23:06 | 49.04189 | 12.92032 | 20285 ft | 335 kts | 208° |
| 2026-05-07 23:06 | 49.02118 | 12.90530 | 19853 ft | 333 kts | 208° |
| 2026-05-07 23:06 | 49.00029 | 12.89015 | 19422 ft | 332 kts | 209° |
| 2026-05-07 23:07 | 48.97947 | 12.87505 | 18995 ft | 331 kts | 209° |
| 2026-05-07 23:07 | 48.95873 | 12.85998 | 18574 ft | 330 kts | 209° |
| 2026-05-07 23:07 | 48.93800 | 12.84499 | 18114 ft | 329 kts | 209° |
| 2026-05-07 23:07 | 48.91734 | 12.83010 | 17690 ft | 327 kts | 208° |
| 2026-05-07 23:08 | 48.89684 | 12.81540 | 17268 ft | 325 kts | 208° |
| 2026-05-07 23:08 | 48.87649 | 12.80080 | 16863 ft | 322 kts | 208° |
| 2026-05-07 23:08 | 48.85626 | 12.78628 | 16467 ft | 321 kts | 208° |
| 2026-05-07 23:08 | 48.83615 | 12.77189 | 16069 ft | 319 kts | 208° |
| 2026-05-07 23:09 | 48.81610 | 12.75752 | 15665 ft | 318 kts | 208° |
| 2026-05-07 23:09 | 48.79616 | 12.74326 | 15275 ft | 316 kts | 208° |
| 2026-05-07 23:09 | 48.77631 | 12.72907 | 14889 ft | 315 kts | 208° |
| 2026-05-07 23:09 | 48.75652 | 12.71491 | 14495 ft | 314 kts | 208° |
| 2026-05-07 23:10 | 48.73679 | 12.70084 | 14105 ft | 313 kts | 208° |
| 2026-05-07 23:10 | 48.71710 | 12.68681 | 13690 ft | 312 kts | 208° |
| 2026-05-07 23:10 | 48.69752 | 12.67287 | 13288 ft | 310 kts | 208° |
| 2026-05-07 23:10 | 48.67807 | 12.65898 | 12895 ft | 308 kts | 208° |
| 2026-05-07 23:11 | 48.65878 | 12.64519 | 12496 ft | 306 kts | 208° |
| 2026-05-07 23:11 | 48.63938 | 12.63126 | 12094 ft | 303 kts | 209° |
| 2026-05-07 23:11 | 48.62222 | 12.61381 | 11877 ft | 292 kts | 224° |
| 2026-05-07 23:11 | 48.60878 | 12.59159 | 11527 ft | 283 kts | 237° |
| 2026-05-07 23:12 | 48.59789 | 12.56711 | 10990 ft | 278 kts | 238° |
| 2026-05-07 23:12 | 48.58736 | 12.54320 | 10586 ft | 269 kts | 238° |
| 2026-05-07 23:12 | 48.57709 | 12.51984 | 10217 ft | 266 kts | 238° |
| 2026-05-07 23:12 | 48.56684 | 12.49659 | 9830 ft | 266 kts | 238° |
| 2026-05-07 23:13 | 48.55659 | 12.47338 | 9382 ft | 267 kts | 238° |
| 2026-05-07 23:13 | 48.54629 | 12.45009 | 8960 ft | 266 kts | 238° |
| 2026-05-07 23:13 | 48.53605 | 12.42696 | 8567 ft | 264 kts | 238° |
| 2026-05-07 23:13 | 48.52585 | 12.40400 | 8172 ft | 262 kts | 238° |
| 2026-05-07 23:14 | 48.51572 | 12.38128 | 7786 ft | 261 kts | 238° |
| 2026-05-07 23:14 | 48.50577 | 12.35893 | 7402 ft | 259 kts | 238° |
| 2026-05-07 23:14 | 48.49560 | 12.33609 | 6988 ft | 257 kts | 238° |
| 2026-05-07 23:14 | 48.48579 | 12.31412 | 6584 ft | 248 kts | 237° |
| 2026-05-07 23:15 | 48.47630 | 12.29292 | 6182 ft | 239 kts | 237° |
| 2026-05-07 23:15 | 48.46729 | 12.27279 | 5879 ft | 230 kts | 237° |
| 2026-05-07 23:15 | 48.45863 | 12.25343 | 5821 ft | 216 kts | 237° |
| 2026-05-07 23:15 | 48.45033 | 12.23485 | 5741 ft | 208 kts | 237° |
| 2026-05-07 23:16 | 48.44240 | 12.21705 | 5655 ft | 207 kts | 237° |
| 2026-05-07 23:16 | 48.43439 | 12.19908 | 5562 ft | 207 kts | 237° |
| 2026-05-07 23:16 | 48.42638 | 12.18107 | 5472 ft | 205 kts | 237° |
| 2026-05-07 23:16 | 48.41852 | 12.16352 | 5382 ft | 195 kts | 237° |
| 2026-05-07 23:17 | 48.41105 | 12.14687 | 5303 ft | 190 kts | 236° |
| 2026-05-07 23:17 | 48.40368 | 12.13045 | 5229 ft | 187 kts | 236° |
| 2026-05-07 23:17 | 48.39675 | 12.11500 | 5144 ft | 176 kts | 236° |
| 2026-05-07 23:17 | 48.39021 | 12.09984 | 5051 ft | 165 kts | 242° |
| 2026-05-07 23:18 | 48.38738 | 12.08366 | 4935 ft | 157 kts | 259° |
| 2026-05-07 23:18 | 48.38570 | 12.06752 | 4739 ft | 155 kts | 261° |
| 2026-05-07 23:18 | 48.38432 | 12.05158 | 4539 ft | 153 kts | 262° |
| 2026-05-07 23:18 | 48.38306 | 12.03573 | 4335 ft | 152 kts | 262° |
| 2026-05-07 23:19 | 48.38185 | 12.02000 | 4130 ft | 151 kts | 263° |
| 2026-05-07 23:19 | 48.38067 | 12.00433 | 3924 ft | 150 kts | 263° |
| 2026-05-07 23:19 | 48.37950 | 11.98879 | 3727 ft | 149 kts | 263° |
| 2026-05-07 23:19 | 48.37835 | 11.97336 | 3529 ft | 148 kts | 263° |
| 2026-05-07 23:20 | 48.37722 | 11.95835 | 3350 ft | 144 kts | 263° |
| 2026-05-07 23:20 | 48.37612 | 11.94363 | 3148 ft | 138 kts | 263° |
| 2026-05-07 23:20 | 48.37506 | 11.92957 | 2964 ft | 136 kts | 263° |
| 2026-05-07 23:20 | 48.37400 | 11.91543 | 2788 ft | 136 kts | 263° |
| 2026-05-07 23:21 | 48.37294 | 11.90132 | 2594 ft | 136 kts | 264° |
| 2026-05-07 23:21 | 48.37187 | 11.88726 | 2396 ft | 135 kts | 264° |
| 2026-05-07 23:21 | 48.37078 | 11.87330 | 2207 ft | 134 kts | 264° |
| 2026-05-07 23:21 | 48.36987 | 11.85944 | 2009 ft | 133 kts | 265° |
| 2026-05-07 23:22 | 48.36885 | 11.84570 | 1814 ft | 131 kts | 263° |
| 2026-05-07 23:22 | 48.36774 | 11.83210 | 1678 ft | 131 kts | 263° |
| 2026-05-07 23:22 | 48.36665 | 11.81851 | 1508 ft | 130 kts | 263° |
| 2026-05-07 23:22 | 48.36575 | 11.80635 | 1485 ft | 94 kts | 263° |
| 2026-05-07 23:23 | 48.36525 | 11.79974 | 1485 ft | 24 kts | 263° |
| 2026-05-07 23:23 | 48.36474 | 11.79761 | 1482 ft | 21 kts | 242° |
| 2026-05-07 23:23 | 48.36390 | 11.79581 | 1485 ft | 21 kts | 233° |
| 2026-05-07 23:23 | 48.36303 | 11.79402 | 1485 ft | 21 kts | 233° |
| 2026-05-07 23:24 | 48.36194 | 11.79297 | 1485 ft | 19 kts | 175° |
| 2026-05-07 23:24 | 48.36058 | 11.79322 | 1481 ft | 20 kts | 174° |
| 2026-05-07 23:24 | 48.35924 | 11.79350 | 1473 ft | 17 kts | 153° |
| 2026-05-07 23:24 | 48.35896 | 11.79496 | 1485 ft | 14 kts | 120° |
| 2026-05-07 23:25 | 48.35801 | 11.79529 | 1485 ft | 15 kts | 172° |
| 2026-05-07 23:25 | 48.35725 | 11.79553 | 1482 ft | 5 kts | 136° |
| 2026-05-07 23:25 | 48.35723 | 11.79606 | 1485 ft | 6 kts | 83° |
| 2026-05-07 23:25 | 48.35728 | 11.79671 | 1485 ft | 7 kts | 83° |
| 2026-05-07 23:26 | 48.35731 | 11.79698 | 1485 ft | 0 kts | 81° |